Time,TemperatureF,DewpointF,PressureIn,WindDirection,WindDirectionDegrees,WindSpeedMPH,WindSpeedGustMPH,Humidity,HourlyPrecipIn,Conditions,Clouds,dailyrainin,SoftwareType,DateUTC
2013-02-02 00:09:00,18.0,9.2,30.43,West,270,6.0,11.0,68,0.00,,CLR,0.00,VWS V14.00,2013-02-02 05:09:00,
2013-02-02 00:19:00,18.0,9.2,30.43,WNW,292,7.0,9.0,68,0.00,,CLR,0.00,VWS V14.00,2013-02-02 05:19:00,
2013-02-02 00:29:00,18.0,8.9,30.43,West,270,5.0,11.0,67,0.00,,CLR,0.00,VWS V14.00,2013-02-02 05:29:00,
2013-02-02 00:39:00,18.0,8.9,30.43,West,270,5.0,11.0,67,0.00,,CLR,0.00,VWS V14.00,2013-02-02 05:39:00,
2013-02-02 00:49:00,18.0,8.9,30.43,West,270,4.0,10.0,67,0.00,,CLR,0.00,VWS V14.00,2013-02-02 05:49:00,
2013-02-02 00:59:00,18.0,8.9,30.43,West,270,7.0,10.0,67,0.00,,CLR,0.00,VWS V14.00,2013-02-02 05:59:00,
2013-02-02 01:09:00,18.0,9.2,30.44,WNW,292,6.0,11.0,68,0.00,,CLR,0.00,VWS V14.00,2013-02-02 06:09:00,
2013-02-02 01:19:00,18.0,9.2,30.44,West,270,5.0,11.0,68,0.00,,CLR,0.00,VWS V14.00,2013-02-02 06:19:00,
2013-02-02 01:29:00,18.0,10.2,30.44,WNW,292,7.0,10.0,71,0.00,,CLR,0.00,VWS V14.00,2013-02-02 06:29:00,
2013-02-02 01:39:00,18.0,9.9,30.45,West,270,5.0,13.0,70,0.00,,CLR,0.00,VWS V14.00,2013-02-02 06:39:00,
2013-02-02 01:49:00,18.0,9.9,30.46,West,270,6.0,10.0,70,0.00,,CLR,0.00,VWS V14.00,2013-02-02 06:49:00,
2013-02-02 01:59:00,17.0,9.6,30.46,WNW,292,5.0,10.0,72,0.00,,CLR,0.00,VWS V14.00,2013-02-02 06:59:00,
2013-02-02 02:09:00,17.0,10.2,30.46,West,270,3.0,11.0,74,0.00,,CLR,0.00,VWS V14.00,2013-02-02 07:09:00,
2013-02-02 02:19:00,17.0,10.2,30.46,WNW,292,6.0,12.0,74,0.00,,CLR,0.00,VWS V14.00,2013-02-02 07:19:00,
2013-02-02 02:29:00,17.0,9.9,30.47,West,270,5.0,10.0,73,0.00,,CLR,0.00,VWS V14.00,2013-02-02 07:29:00,
2013-02-02 02:39:00,17.0,9.9,30.47,West,270,4.0,8.0,73,0.00,,CLR,0.00,VWS V14.00,2013-02-02 07:39:00,
2013-02-02 02:49:00,17.0,10.2,30.46,West,270,5.0,9.0,74,0.00,,CLR,0.00,VWS V14.00,2013-02-02 07:49:00,
2013-02-02 02:59:00,17.0,10.8,30.47,WSW,247,4.0,8.0,76,0.00,,CLR,0.00,VWS V14.00,2013-02-02 07:59:00,
2013-02-02 03:09:00,17.0,10.8,30.48,West,270,7.0,8.0,76,0.00,,CLR,0.00,VWS V14.00,2013-02-02 08:09:00,
2013-02-02 03:19:00,17.0,10.8,30.48,West,270,5.0,8.0,76,0.00,,CLR,0.00,VWS V14.00,2013-02-02 08:19:00,
2013-02-02 03:29:00,16.0,10.4,30.47,West,270,3.0,8.0,78,0.00,,CLR,0.00,VWS V14.00,2013-02-02 08:29:00,
2013-02-02 03:39:00,16.0,10.4,30.47,West,270,5.0,10.0,78,0.00,,CLR,0.00,VWS V14.00,2013-02-02 08:39:00,
2013-02-02 03:49:00,16.0,10.6,30.48,West,270,5.0,8.0,79,0.00,,CLR,0.00,VWS V14.00,2013-02-02 08:49:00,
2013-02-02 03:59:00,16.0,10.9,30.48,West,270,7.0,10.0,80,0.00,,CLR,0.00,VWS V14.00,2013-02-02 08:59:00,
2013-02-02 04:09:00,16.0,10.9,30.49,West,270,7.0,9.0,80,0.00,,CLR,0.00,VWS V14.00,2013-02-02 09:09:00,
2013-02-02 04:19:00,16.0,10.9,30.49,West,270,5.0,8.0,80,0.00,,CLR,0.00,VWS V14.00,2013-02-02 09:19:00,
2013-02-02 04:29:00,16.0,11.2,30.49,West,270,4.0,9.0,81,0.00,,CLR,0.00,VWS V14.00,2013-02-02 09:29:00,
2013-02-02 04:39:00,16.0,11.5,30.49,West,270,7.0,9.0,82,0.00,,CLR,0.00,VWS V14.00,2013-02-02 09:39:00,
2013-02-02 04:49:00,16.0,12.0,30.50,West,270,3.0,7.0,84,0.00,,CLR,0.00,VWS V14.00,2013-02-02 09:49:00,
2013-02-02 04:59:00,16.0,12.3,30.50,WSW,247,7.0,10.0,85,0.00,,CLR,0.00,VWS V14.00,2013-02-02 09:59:00,
2013-02-02 05:09:00,16.0,12.3,30.50,WSW,247,4.0,8.0,85,0.00,,CLR,0.00,VWS V14.00,2013-02-02 10:09:00,
2013-02-02 05:19:00,17.0,13.8,30.51,West,270,6.0,10.0,87,0.00,,CLR,0.00,VWS V14.00,2013-02-02 10:19:00,
2013-02-02 05:29:00,16.0,12.0,30.51,WNW,292,8.0,10.0,84,0.00,,CLR,0.00,VWS V14.00,2013-02-02 10:29:00,
2013-02-02 05:39:00,16.0,11.8,30.51,West,270,4.0,12.0,83,0.00,,CLR,0.00,VWS V14.00,2013-02-02 10:39:00,
2013-02-02 05:49:00,16.0,11.8,30.52,WNW,292,6.0,10.0,83,0.00,,CLR,0.00,VWS V14.00,2013-02-02 10:49:00,
2013-02-02 05:59:00,16.0,11.8,30.52,WNW,292,7.0,10.0,83,0.00,,CLR,0.00,VWS V14.00,2013-02-02 10:59:00,
2013-02-02 06:09:00,16.0,12.3,30.52,West,270,4.0,8.0,85,0.00,,CLR,0.00,VWS V14.00,2013-02-02 11:09:00,
2013-02-02 06:19:00,16.0,12.6,30.52,West,270,3.0,8.0,86,0.00,,CLR,0.00,VWS V14.00,2013-02-02 11:19:00,
2013-02-02 06:29:00,15.0,12.1,30.52,WNW,292,4.0,8.0,88,0.00,,CLR,0.00,VWS V14.00,2013-02-02 11:29:00,
2013-02-02 06:39:00,15.0,12.1,30.53,West,270,4.0,8.0,88,0.00,,CLR,0.00,VWS V14.00,2013-02-02 11:39:00,
2013-02-02 06:49:00,15.0,12.4,30.53,WNW,292,3.0,7.0,89,0.00,,CLR,0.00,VWS V14.00,2013-02-02 11:49:00,
2013-02-02 06:59:00,15.0,12.4,30.52,NW,315,5.0,7.0,89,0.00,,CLR,0.00,VWS V14.00,2013-02-02 11:59:00,
2013-02-02 07:09:00,15.0,12.6,30.53,WNW,292,4.0,7.0,90,0.00,,CLR,0.00,VWS V14.00,2013-02-02 12:09:00,
2013-02-02 07:19:00,15.0,12.6,30.54,WNW,292,5.0,6.0,90,0.00,,CLR,0.00,VWS V14.00,2013-02-02 12:19:00,
2013-02-02 07:29:00,16.0,13.6,30.54,WNW,292,4.0,6.0,90,0.00,,CLR,0.00,VWS V14.00,2013-02-02 12:29:00,
2013-02-02 07:39:00,16.0,13.3,30.55,WNW,292,7.0,7.0,89,0.00,,CLR,0.00,VWS V14.00,2013-02-02 12:39:00,
2013-02-02 07:49:00,17.0,13.8,30.55,WNW,292,5.0,7.0,87,0.00,,CLR,0.00,VWS V14.00,2013-02-02 12:49:00,
2013-02-02 07:59:00,18.0,13.4,30.55,WNW,292,6.0,9.0,82,0.00,,CLR,0.00,VWS V14.00,2013-02-02 12:59:00,
2013-02-02 08:09:00,18.0,13.2,30.55,West,270,6.0,9.0,81,0.00,,CLR,0.00,VWS V14.00,2013-02-02 13:09:00,
2013-02-02 08:19:00,19.0,13.9,30.56,West,270,7.0,9.0,80,0.00,,CLR,0.00,VWS V14.00,2013-02-02 13:19:00,
2013-02-02 08:29:00,19.0,13.3,30.56,WNW,292,3.0,10.0,78,0.00,,CLR,0.00,VWS V14.00,2013-02-02 13:29:00,
2013-02-02 08:39:00,19.0,12.4,30.56,WNW,292,4.0,10.0,75,0.00,,CLR,0.00,VWS V14.00,2013-02-02 13:39:00,
2013-02-02 08:49:00,20.0,13.7,30.57,NW,315,4.0,10.0,76,0.00,,CLR,0.00,VWS V14.00,2013-02-02 13:49:00,
2013-02-02 08:59:00,20.0,12.8,30.56,WNW,292,7.0,9.0,73,0.00,,CLR,0.00,VWS V14.00,2013-02-02 13:59:00,
2013-02-02 09:09:00,20.0,12.4,30.56,West,270,4.0,10.0,72,0.00,,CLR,0.00,VWS V14.00,2013-02-02 14:09:00,
2013-02-02 09:19:00,21.0,12.4,30.55,WNW,292,7.0,9.0,69,0.00,,CLR,0.00,VWS V14.00,2013-02-02 14:19:00,
2013-02-02 09:29:00,21.0,12.1,30.56,West,270,4.0,9.0,68,0.00,,CLR,0.00,VWS V14.00,2013-02-02 14:29:00,
2013-02-02 09:39:00,21.0,12.1,30.56,WSW,247,5.0,8.0,68,0.00,,CLR,0.00,VWS V14.00,2013-02-02 14:39:00,
2013-02-02 09:49:00,21.0,12.1,30.56,West,270,7.0,14.0,68,0.00,,CLR,0.00,VWS V14.00,2013-02-02 14:49:00,
2013-02-02 09:59:00,22.0,13.7,30.55,WSW,247,5.0,11.0,70,0.00,,CLR,0.00,VWS V14.00,2013-02-02 14:59:00,
2013-02-02 10:09:00,22.0,13.4,30.55,West,270,8.0,11.0,69,0.00,,CLR,0.00,VWS V14.00,2013-02-02 15:09:00,
2013-02-02 10:19:00,21.0,14.9,30.55,SW,225,8.0,13.0,77,0.00,,CLR,0.00,VWS V14.00,2013-02-02 15:19:00,
2013-02-02 10:29:00,22.0,15.3,30.55,SW,225,8.0,13.0,75,0.00,,CLR,0.00,VWS V14.00,2013-02-02 15:29:00,
2013-02-02 10:39:00,22.0,15.3,30.54,West,270,6.0,13.0,75,0.00,,CLR,0.00,VWS V14.00,2013-02-02 15:39:00,
2013-02-02 10:49:00,22.0,16.5,30.54,SW,225,8.0,12.0,79,0.00,,CLR,0.00,VWS V14.00,2013-02-02 15:49:00,
2013-02-02 10:59:00,22.0,16.5,30.53,SW,225,11.0,12.0,79,0.00,,CLR,0.00,VWS V14.00,2013-02-02 15:59:00,
2013-02-02 11:09:00,22.0,17.1,30.53,West,270,7.0,14.0,81,0.00,,CLR,0.00,VWS V14.00,2013-02-02 16:09:00,
2013-02-02 11:19:00,22.0,15.3,30.52,WSW,247,6.0,12.0,75,0.00,,CLR,0.00,VWS V14.00,2013-02-02 16:19:00,
2013-02-02 11:29:00,22.0,17.4,30.50,SW,225,5.0,13.0,82,0.00,,CLR,0.00,VWS V14.00,2013-02-02 16:29:00,
2013-02-02 11:39:00,23.0,17.8,30.50,SW,225,12.0,14.0,80,0.00,,CLR,0.00,VWS V14.00,2013-02-02 16:39:00,
2013-02-02 11:49:00,22.0,17.4,30.51,West,270,10.0,17.0,82,0.00,,CLR,0.00,VWS V14.00,2013-02-02 16:49:00,
2013-02-02 11:59:00,22.0,16.5,30.50,WSW,247,9.0,16.0,79,0.00,,CLR,0.00,VWS V14.00,2013-02-02 16:59:00,
2013-02-02 12:09:00,22.0,17.4,30.49,West,270,10.0,14.0,82,0.00,,SCT040,0.00,VWS V14.00,2013-02-02 17:09:00,
2013-02-02 12:19:00,22.0,17.1,30.49,WSW,247,8.0,15.0,81,0.00,,SCT040,0.00,VWS V14.00,2013-02-02 17:19:00,
2013-02-02 12:29:00,22.0,15.9,30.48,WSW,247,6.0,12.0,77,0.00,,SCT040,0.00,VWS V14.00,2013-02-02 17:29:00,
2013-02-02 12:39:00,23.0,17.8,30.46,SW,225,6.0,14.0,80,0.00,,SCT040,0.00,VWS V14.00,2013-02-02 17:39:00,
2013-02-02 12:49:00,23.0,16.9,30.46,SW,225,10.0,12.0,77,0.00,,SCT040,0.00,VWS V14.00,2013-02-02 17:49:00,
2013-02-02 12:59:00,24.0,16.6,30.46,WSW,247,9.0,11.0,73,0.00,,SCT040,0.00,VWS V14.00,2013-02-02 17:59:00,
2013-02-02 13:09:00,24.0,15.3,30.45,SW,225,3.0,12.0,69,0.00,,SCT040,0.00,VWS V14.00,2013-02-02 18:09:00,
2013-02-02 13:19:00,24.0,15.3,30.45,SW,225,8.0,13.0,69,0.00,,SCT040,0.00,VWS V14.00,2013-02-02 18:19:00,
2013-02-02 13:29:00,25.0,16.9,30.44,SW,225,7.0,11.0,71,0.00,,SCT040,0.00,VWS V14.00,2013-02-02 18:29:00,
2013-02-02 13:39:00,25.0,16.3,30.44,WSW,247,8.0,11.0,69,0.00,,SCT040,0.00,VWS V14.00,2013-02-02 18:39:00,
2013-02-02 13:49:00,24.0,14.3,30.44,WSW,247,8.0,13.0,66,0.00,,SCT040,0.00,VWS V14.00,2013-02-02 18:49:00,
2013-02-02 13:59:00,24.0,13.6,30.42,West,270,5.0,14.0,64,0.00,,SCT040,0.00,VWS V14.00,2013-02-02 18:59:00,
2013-02-02 14:09:00,25.0,14.6,30.42,SW,225,7.0,14.0,64,0.00,,FEW035,0.00,VWS V14.00,2013-02-02 19:09:00,
2013-02-02 14:19:00,25.0,13.5,30.41,SW,225,10.0,15.0,61,0.00,,FEW035,0.00,VWS V14.00,2013-02-02 19:19:00,
2013-02-02 14:29:00,26.0,15.5,30.40,SW,225,14.0,16.0,64,0.00,,FEW035,0.00,VWS V14.00,2013-02-02 19:29:00,
2013-02-02 14:39:00,26.0,15.5,30.40,West,270,17.0,17.0,64,0.00,,FEW035,0.00,VWS V14.00,2013-02-02 19:39:00,
2013-02-02 14:49:00,26.0,16.2,30.40,West,270,14.0,18.0,66,0.00,,FEW035,0.00,VWS V14.00,2013-02-02 19:49:00,
2013-02-02 14:59:00,26.0,15.9,30.39,West,270,10.0,16.0,65,0.00,,FEW035,0.00,VWS V14.00,2013-02-02 19:59:00,
2013-02-02 15:09:00,26.0,14.8,30.38,West,270,10.0,17.0,62,0.00,,BKN100,0.00,VWS V14.00,2013-02-02 20:09:00,
2013-02-02 15:19:00,25.0,15.3,30.38,West,270,13.0,19.0,66,0.00,,BKN100,0.00,VWS V14.00,2013-02-02 20:19:00,
2013-02-02 15:29:00,26.0,16.6,30.37,West,270,11.0,18.0,67,0.00,,BKN100,0.00,VWS V14.00,2013-02-02 20:29:00,
2013-02-02 15:39:00,25.0,15.3,30.37,West,270,7.0,17.0,66,0.01,,BKN100,0.01,VWS V14.00,2013-02-02 20:39:00,
2013-02-02 15:49:00,25.0,14.6,30.37,West,270,15.0,16.0,64,0.01,,BKN100,0.01,VWS V14.00,2013-02-02 20:49:00,
2013-02-02 15:59:00,25.0,14.2,30.37,West,270,13.0,18.0,63,0.01,,BKN100,0.01,VWS V14.00,2013-02-02 20:59:00,
2013-02-02 16:09:00,25.0,15.3,30.37,West,270,12.0,15.0,66,0.01,,SCT041,0.01,VWS V14.00,2013-02-02 21:09:00,
2013-02-02 16:19:00,25.0,19.4,30.36,West,270,10.0,16.0,79,0.00,,SCT041,0.01,VWS V14.00,2013-02-02 21:19:00,
2013-02-02 16:29:00,25.0,16.3,30.36,West,270,10.0,19.0,69,0.00,,SCT041,0.01,VWS V14.00,2013-02-02 21:29:00,
2013-02-02 16:39:00,25.0,19.1,30.36,West,270,12.0,18.0,78,0.00,,SCT041,0.01,VWS V14.00,2013-02-02 21:39:00,
2013-02-02 16:49:00,25.0,19.4,30.36,West,270,14.0,19.0,79,0.00,,SCT041,0.01,VWS V14.00,2013-02-02 21:49:00,
2013-02-02 16:59:00,25.0,18.5,30.36,WSW,247,12.0,17.0,76,0.00,,SCT041,0.01,VWS V14.00,2013-02-02 21:59:00,
2013-02-02 17:09:00,25.0,18.8,30.35,West,270,9.0,19.0,77,0.00,,BKN120,0.01,VWS V14.00,2013-02-02 22:09:00,
2013-02-02 17:19:00,25.0,17.6,30.36,West,270,11.0,18.0,73,0.00,,BKN120,0.01,VWS V14.00,2013-02-02 22:19:00,
2013-02-02 17:29:00,25.0,16.9,30.35,West,270,15.0,17.0,71,0.00,,BKN120,0.01,VWS V14.00,2013-02-02 22:29:00,
2013-02-02 17:39:00,26.0,20.4,30.36,West,270,8.0,18.0,79,0.01,,BKN120,0.02,VWS V14.00,2013-02-02 22:39:00,
2013-02-02 17:49:00,26.0,19.5,30.35,West,270,13.0,20.0,76,0.02,,BKN120,0.03,VWS V14.00,2013-02-02 22:49:00,
2013-02-02 17:59:00,25.0,17.6,30.34,West,270,9.0,20.0,73,0.02,,BKN120,0.03,VWS V14.00,2013-02-02 22:59:00,
2013-02-02 18:09:00,25.0,17.3,30.34,WSW,247,13.0,19.0,72,0.01,,OVC100,0.03,VWS V14.00,2013-02-02 23:09:00,
2013-02-02 18:19:00,25.0,19.7,30.35,West,270,14.0,17.0,80,0.01,,OVC100,0.03,VWS V14.00,2013-02-02 23:19:00,
2013-02-02 18:29:00,26.0,21.0,30.34,WNW,292,14.0,18.0,81,0.01,,OVC100,0.03,VWS V14.00,2013-02-02 23:29:00,
2013-02-02 18:39:00,26.0,20.4,30.35,West,270,11.0,17.0,79,0.01,,OVC100,0.03,VWS V14.00,2013-02-02 23:39:00,
2013-02-02 18:49:00,26.0,18.9,30.34,West,270,13.0,17.0,74,0.01,,OVC100,0.03,VWS V14.00,2013-02-02 23:49:00,
2013-02-02 18:59:00,26.0,18.5,30.34,West,270,14.0,17.0,73,0.01,,OVC100,0.03,VWS V14.00,2013-02-02 23:59:00,
2013-02-02 19:09:00,26.0,21.0,30.34,West,270,6.0,16.0,81,0.00,,BKN110,0.03,VWS V14.00,2013-02-03 00:09:00,
2013-02-02 19:19:00,26.0,20.4,30.33,West,270,14.0,17.0,79,0.00,,BKN110,0.03,VWS V14.00,2013-02-03 00:19:00,
2013-02-02 19:29:00,26.0,17.9,30.32,West,270,10.0,20.0,71,0.00,,BKN110,0.03,VWS V14.00,2013-02-03 00:29:00,
2013-02-02 19:39:00,26.0,18.2,30.33,West,270,16.0,19.0,72,0.00,,BKN110,0.03,VWS V14.00,2013-02-03 00:39:00,
2013-02-02 19:49:00,26.0,17.9,30.33,West,270,16.0,17.0,71,0.00,,BKN110,0.03,VWS V14.00,2013-02-03 00:49:00,
2013-02-02 19:59:00,27.0,20.1,30.33,West,270,14.0,19.0,75,0.00,,BKN110,0.03,VWS V14.00,2013-02-03 00:59:00,
2013-02-02 20:09:00,26.0,17.2,30.32,West,270,9.0,17.0,69,0.00,,OVC100,0.03,VWS V14.00,2013-02-03 01:09:00,
2013-02-02 20:19:00,26.0,16.2,30.31,WSW,247,9.0,19.0,66,0.00,,OVC100,0.03,VWS V14.00,2013-02-03 01:19:00,
2013-02-02 20:29:00,27.0,17.5,30.31,West,270,11.0,21.0,67,0.00,,OVC100,0.03,VWS V14.00,2013-02-03 01:29:00,
2013-02-02 20:39:00,26.0,16.9,30.32,West,270,11.0,21.0,68,0.02,,OVC100,0.05,VWS V14.00,2013-02-03 01:39:00,
2013-02-02 20:49:00,26.0,17.9,30.32,WSW,247,10.0,19.0,71,0.03,,OVC100,0.06,VWS V14.00,2013-02-03 01:49:00,
2013-02-02 20:59:00,26.0,18.5,30.32,WSW,247,8.0,19.0,73,0.02,,OVC100,0.06,VWS V14.00,2013-02-03 01:59:00,
2013-02-02 21:09:00,25.0,19.1,30.33,West,270,5.0,18.0,78,0.04,,OVC065,0.08,VWS V14.00,2013-02-03 02:09:00,
2013-02-02 21:19:00,25.0,19.4,30.34,West,270,6.0,19.0,79,0.03,,OVC065,0.08,VWS V14.00,2013-02-03 02:19:00,
2013-02-02 21:29:00,25.0,20.6,30.33,West,270,10.0,17.0,83,0.03,,OVC065,0.08,VWS V14.00,2013-02-03 02:29:00,
2013-02-02 21:39:00,24.0,20.7,30.33,West,270,8.0,14.0,87,0.02,,OVC065,0.08,VWS V14.00,2013-02-03 02:39:00,
2013-02-02 21:49:00,24.0,21.8,30.34,West,270,9.0,14.0,91,0.02,,OVC065,0.08,VWS V14.00,2013-02-03 02:49:00,
2013-02-02 21:59:00,23.0,22.3,30.34,West,270,6.0,12.0,97,0.02,,OVC065,0.08,VWS V14.00,2013-02-03 02:59:00,
2013-02-02 22:09:00,23.0,23.0,30.34,WNW,292,6.0,15.0,100,0.01,,OVC070,0.08,VWS V14.00,2013-02-03 03:09:00,
2013-02-02 22:19:00,22.0,22.0,30.34,WSW,247,7.0,14.0,100,0.01,,OVC070,0.08,VWS V14.00,2013-02-03 03:19:00,
2013-02-02 22:29:00,22.0,22.0,30.35,WSW,247,6.0,11.0,100,0.01,,OVC070,0.08,VWS V14.00,2013-02-03 03:29:00,
2013-02-02 22:39:00,22.0,22.0,30.35,WNW,292,6.0,11.0,100,0.01,,OVC070,0.08,VWS V14.00,2013-02-03 03:39:00,
2013-02-02 22:49:00,21.0,21.0,30.35,WNW,292,9.0,11.0,100,0.01,,OVC070,0.08,VWS V14.00,2013-02-03 03:49:00,
2013-02-02 22:59:00,21.0,21.0,30.36,WNW,292,5.0,11.0,100,0.01,,,0.08,VWS V14.00,2013-02-03 03:59:00,
2013-02-02 23:09:00,21.0,21.0,30.35,WNW,292,6.0,9.0,100,0.01,,,0.08,VWS V14.00,2013-02-03 04:09:00,
2013-02-02 23:19:00,20.0,20.0,30.35,WNW,292,2.0,9.0,100,0.00,,,0.08,VWS V14.00,2013-02-03 04:19:00,
2013-02-02 23:29:00,20.0,20.0,30.35,WNW,292,6.0,9.0,100,0.00,,,0.08,VWS V14.00,2013-02-03 04:29:00,
2013-02-02 23:39:00,20.0,20.0,30.34,NW,315,6.0,10.0,100,0.00,,,0.08,VWS V14.00,2013-02-03 04:39:00,
2013-02-02 23:49:00,20.0,20.0,30.35,NW,315,5.0,10.0,100,0.00,,,0.08,VWS V14.00,2013-02-03 04:49:00,
2013-02-02 23:59:00,20.0,20.0,30.35,NW,315,5.0,10.0,100,0.00,,,0.00,VWS V14.00,2013-02-03 04:59:00,